createdAt,value
2019-03-23T00:00:45.476Z,90.00
2019-03-23T00:03:16.057Z,90.00
2019-03-23T00:05:45.921Z,90.10
2019-03-23T00:08:16.497Z,90.40
2019-03-23T00:10:46.777Z,90.20
2019-03-23T00:13:17.431Z,90.20
2019-03-23T00:15:47.733Z,90.50
2019-03-23T00:18:18.281Z,90.60
2019-03-23T00:20:49.025Z,90.90
2019-03-23T00:23:19.324Z,91.20
2019-03-23T00:25:49.634Z,92.10
2019-03-23T00:28:19.978Z,92.60
2019-03-23T00:30:50.282Z,92.40
2019-03-23T00:33:20.441Z,92.50
2019-03-23T00:35:51.059Z,92.80
2019-03-23T00:38:21.409Z,92.80
2019-03-23T00:40:52.270Z,92.40
2019-03-23T00:43:22.582Z,93.10
2019-03-23T00:45:53.053Z,93.30
2019-03-23T00:48:23.665Z,93.30
2019-03-23T00:50:54.248Z,93.40
2019-03-23T00:53:24.771Z,93.40
2019-03-23T00:55:54.647Z,93.50
2019-03-23T00:58:24.932Z,93.80
2019-03-23T01:00:54.980Z,94.10
2019-03-23T01:03:25.433Z,94.30
2019-03-23T01:05:55.833Z,94.30
2019-03-23T01:08:26.785Z,94.30
2019-03-23T01:10:56.676Z,94.20
2019-03-23T01:13:27.329Z,94.30
2019-03-23T01:15:57.573Z,94.10
2019-03-23T01:18:27.492Z,94.20
2019-03-23T01:20:58.095Z,94.50
2019-03-23T01:23:28.837Z,94.80
2019-03-23T01:25:59.933Z,95.10
2019-03-23T01:28:30.581Z,94.80
2019-03-23T01:31:01.153Z,94.70
2019-03-23T01:33:31.421Z,94.80
2019-03-23T01:36:02.458Z,94.40
2019-03-23T01:38:33.011Z,93.70
2019-03-23T01:41:03.293Z,93.50
2019-03-23T01:43:34.047Z,93.90
2019-03-23T01:46:04.070Z,93.80
2019-03-23T01:48:35.153Z,94.30
2019-03-23T01:51:05.691Z,94.60
2019-03-23T01:53:36.925Z,94.80
2019-03-23T01:56:07.121Z,94.80
2019-03-23T01:58:37.302Z,95.30
2019-03-23T02:01:07.544Z,94.70
2019-03-23T02:03:38.125Z,95.10
2019-03-23T02:06:08.961Z,95.70
2019-03-23T02:08:39.166Z,95.50
2019-03-23T02:11:09.517Z,95.40
2019-03-23T02:13:40.051Z,95.60
2019-03-23T02:16:10.574Z,95.50
2019-03-23T02:18:41.575Z,95.60
2019-03-23T02:21:12.564Z,95.80
2019-03-23T02:23:42.776Z,95.80
2019-03-23T02:26:12.691Z,95.80
2019-03-23T02:28:42.980Z,96.00
2019-03-23T02:31:13.652Z,95.60
2019-03-23T02:33:44.286Z,95.80
2019-03-23T02:36:14.977Z,95.90
2019-03-23T02:38:45.862Z,96.20
2019-03-23T02:41:16.923Z,96.20
2019-03-23T02:43:47.751Z,95.80
2019-03-23T02:46:17.642Z,95.30
2019-03-23T02:48:48.913Z,95.40
2019-03-23T02:51:19.186Z,95.30
2019-03-23T02:53:49.991Z,94.90
2019-03-23T02:56:20.503Z,95.70
2019-03-23T02:58:51.573Z,95.00
2019-03-23T03:01:22.141Z,94.80
2019-03-23T03:03:52.877Z,95.20
2019-03-23T03:06:23.484Z,96.00
2019-03-23T03:08:54.510Z,96.30
2019-03-23T03:11:24.562Z,97.00
2019-03-23T03:13:54.793Z,96.80
2019-03-23T03:16:25.128Z,97.20
2019-03-23T03:18:55.761Z,97.50
2019-03-23T03:21:25.973Z,97.30
2019-03-23T03:23:56.544Z,97.80
2019-03-23T03:26:27.205Z,97.70
2019-03-23T03:28:57.907Z,97.40
2019-03-23T03:31:28.504Z,97.50
2019-03-23T03:33:59.404Z,96.80
2019-03-23T03:36:30.365Z,96.30
2019-03-23T03:39:00.603Z,96.30
2019-03-23T03:41:30.863Z,96.50
2019-03-23T03:44:01.765Z,96.20
2019-03-23T03:46:32.014Z,95.70
2019-03-23T03:49:12.353Z,95.80
2019-03-23T03:51:34.608Z,95.80
2019-03-23T03:54:05.020Z,95.40
2019-03-23T03:56:35.778Z,94.90
2019-03-23T03:59:05.847Z,94.90
2019-03-23T04:01:36.271Z,94.80
2019-03-23T04:04:06.410Z,95.00
2019-03-23T04:06:37.235Z,95.20
2019-03-23T04:09:08.394Z,95.70
2019-03-23T04:11:38.614Z,96.60
2019-03-23T04:14:09.181Z,97.00
2019-03-23T04:16:39.079Z,97.50
2019-03-23T04:19:09.358Z,97.70
2019-03-23T04:21:40.381Z,98.60
2019-03-23T04:24:10.652Z,98.00
2019-03-23T04:26:41.606Z,98.80
2019-03-23T04:29:12.038Z,98.80
2019-03-23T04:31:42.339Z,98.40
2019-03-23T04:34:12.962Z,98.60
2019-03-23T04:36:42.863Z,98.00
2019-03-23T04:39:13.133Z,97.10
2019-03-23T04:41:43.412Z,97.00
2019-03-23T04:44:14.081Z,96.50
2019-03-23T04:46:44.265Z,96.40
2019-03-23T04:49:15.086Z,95.50
2019-03-23T04:51:45.316Z,95.00
2019-03-23T04:54:15.562Z,94.80
2019-03-23T04:56:45.845Z,95.20
2019-03-23T04:59:16.954Z,94.90
2019-03-23T05:01:47.301Z,94.50
2019-03-23T05:04:17.934Z,94.30
2019-03-23T05:06:48.953Z,94.30
2019-03-23T05:09:19.275Z,94.50
2019-03-23T05:11:50.154Z,94.30
2019-03-23T05:14:20.601Z,94.80
2019-03-23T05:16:50.889Z,95.40
2019-03-23T05:19:22.172Z,95.90
2019-03-23T05:21:52.811Z,97.10
2019-03-23T05:24:23.485Z,96.60
2019-03-23T05:26:54.425Z,97.30
2019-03-23T05:29:25.090Z,98.00
2019-03-23T05:31:55.313Z,98.10
2019-03-23T05:34:26.600Z,98.50
2019-03-23T05:36:56.869Z,97.90
2019-03-23T05:39:27.485Z,97.80
2019-03-23T05:41:57.858Z,96.90
2019-03-23T05:44:28.813Z,96.90
2019-03-23T05:46:59.349Z,97.40
2019-03-23T05:49:29.285Z,96.30
2019-03-23T05:52:01.545Z,95.40
2019-03-23T05:54:31.985Z,95.50
2019-03-23T05:57:02.634Z,95.60
2019-03-23T05:59:33.323Z,95.80
2019-03-23T06:02:03.537Z,95.90
2019-03-23T06:04:33.766Z,96.20
2019-03-23T06:07:04.345Z,96.40
2019-03-23T06:09:34.297Z,96.70
2019-03-23T06:12:04.897Z,96.90
2019-03-23T06:14:35.181Z,96.70
2019-03-23T06:17:06.119Z,96.60
2019-03-23T06:19:36.341Z,96.80
2019-03-23T06:22:06.644Z,96.80
2019-03-23T06:24:36.957Z,96.80
2019-03-23T06:27:07.708Z,96.60
2019-03-23T06:29:37.898Z,96.30
2019-03-23T06:32:08.082Z,96.20
2019-03-23T06:34:39.216Z,96.60
2019-03-23T06:37:10.439Z,96.20
2019-03-23T06:39:40.581Z,96.40
2019-03-23T06:42:10.482Z,96.40
2019-03-23T06:44:41.339Z,95.80
2019-03-23T06:47:12.294Z,95.20
2019-03-23T06:49:43.132Z,94.80
2019-03-23T06:52:13.805Z,94.80
2019-03-23T06:54:44.026Z,94.70
2019-03-23T06:57:14.662Z,94.50
2019-03-23T06:59:45.393Z,93.70
2019-03-23T07:02:15.727Z,93.50
2019-03-23T07:04:46.051Z,92.50
2019-03-23T07:07:16.376Z,90.60
2019-03-23T07:09:46.580Z,88.40
2019-03-23T07:12:17.370Z,85.50
2019-03-23T07:14:47.676Z,79.70
2019-03-23T07:17:18.541Z,79.10
2019-03-23T07:19:48.843Z,78.40
2019-03-23T07:22:19.474Z,77.00
2019-03-23T07:24:49.706Z,77.10
2019-03-23T07:27:20.329Z,76.50
2019-03-23T07:29:50.511Z,76.40
2019-03-23T07:32:21.818Z,77.00
2019-03-23T07:34:52.890Z,76.90
2019-03-23T07:37:23.310Z,76.80
2019-03-23T07:39:54.129Z,76.60
2019-03-23T07:42:24.964Z,75.60
2019-03-23T07:44:54.899Z,75.20
2019-03-23T07:47:25.074Z,74.70
2019-03-23T07:49:55.676Z,74.80
2019-03-23T07:52:26.233Z,74.10
2019-03-23T07:54:58.639Z,72.40
2019-03-23T07:57:29.221Z,73.00
2019-03-23T07:59:59.365Z,72.80
2019-03-23T08:02:29.610Z,70.70
2019-03-23T08:04:59.982Z,71.60
2019-03-23T08:07:30.259Z,72.20
2019-03-23T08:10:00.555Z,70.50
2019-03-23T08:12:31.112Z,69.50
2019-03-23T08:15:01.863Z,69.20
2019-03-23T08:17:32.906Z,68.60
2019-03-23T08:20:02.854Z,69.80
2019-03-23T08:22:33.268Z,69.50
2019-03-23T08:25:03.490Z,69.30
2019-03-23T08:27:33.709Z,68.60
2019-03-23T08:30:04.101Z,69.00
2019-03-23T08:32:34.753Z,69.30
2019-03-23T08:35:05.400Z,67.90
2019-03-23T08:37:35.950Z,69.00
2019-03-23T08:40:06.909Z,67.20
2019-03-23T08:42:37.773Z,68.30
2019-03-23T08:45:08.202Z,66.40
2019-03-23T08:47:38.882Z,67.60
2019-03-23T08:50:09.233Z,67.70
2019-03-23T08:52:39.793Z,66.20
2019-03-23T08:55:10.416Z,66.10
2019-03-23T08:57:41.550Z,66.80
2019-03-23T09:00:11.798Z,66.80
2019-03-23T09:02:42.090Z,66.30
2019-03-23T09:05:12.751Z,65.30
2019-03-23T09:07:43.377Z,65.20
2019-03-23T09:10:13.553Z,64.90
2019-03-23T09:12:43.456Z,65.70
2019-03-23T09:15:13.883Z,65.10
2019-03-23T09:17:44.190Z,65.10
2019-03-23T09:20:15.141Z,64.50
2019-03-23T09:22:46.421Z,64.60
2019-03-23T09:25:16.597Z,64.00
2019-03-23T09:27:46.968Z,64.30
2019-03-23T09:30:18.658Z,63.50
2019-03-23T09:32:49.327Z,64.20
2019-03-23T09:35:19.241Z,64.70
2019-03-23T09:37:50.409Z,64.60
2019-03-23T09:40:21.029Z,64.60
2019-03-23T09:42:51.419Z,65.00
2019-03-23T09:45:21.670Z,65.10
2019-03-23T09:47:52.261Z,65.30
2019-03-23T09:50:23.250Z,64.70
2019-03-23T09:52:53.835Z,65.10
2019-03-23T09:55:24.522Z,65.10
2019-03-23T09:57:55.453Z,64.80
2019-03-23T10:00:25.813Z,64.40
2019-03-23T10:02:56.419Z,64.50
2019-03-23T10:05:27.104Z,63.30
2019-03-23T10:07:57.473Z,62.80
2019-03-23T10:10:27.764Z,63.70
2019-03-23T10:12:58.092Z,62.50
2019-03-23T10:15:28.659Z,61.50
2019-03-23T10:17:58.913Z,61.10
2019-03-23T10:20:29.181Z,60.60
2019-03-23T10:22:59.786Z,60.90
2019-03-23T10:25:30.323Z,60.90
2019-03-23T10:28:00.975Z,61.00
2019-03-23T10:30:31.276Z,61.10
2019-03-23T10:33:01.501Z,62.00
2019-03-23T10:35:32.086Z,62.00
2019-03-23T10:38:03.310Z,62.50
2019-03-23T10:40:33.945Z,62.90
2019-03-23T10:43:03.814Z,64.10
2019-03-23T10:45:43.808Z,64.20
2019-03-23T10:48:07.203Z,63.40
2019-03-23T10:50:37.834Z,63.00
2019-03-23T10:53:07.756Z,63.20
2019-03-23T10:55:38.621Z,65.20
2019-03-23T10:58:08.853Z,64.00
2019-03-23T11:00:39.018Z,63.80
2019-03-23T11:03:09.613Z,63.90
2019-03-23T11:05:39.884Z,62.90
2019-03-23T11:08:09.750Z,63.10
2019-03-23T11:10:41.953Z,62.90
2019-03-23T11:13:11.597Z,62.60
2019-03-23T11:15:42.102Z,64.40
2019-03-23T11:18:13.331Z,63.80
2019-03-23T11:20:44.429Z,63.90
2019-03-23T11:23:14.341Z,63.60
2019-03-23T11:25:44.945Z,63.50
2019-03-23T11:28:15.671Z,63.10
2019-03-23T11:30:45.714Z,63.00
2019-03-23T11:33:16.054Z,62.70
2019-03-23T11:35:57.238Z,62.90
2019-03-23T11:38:19.650Z,63.20
2019-03-23T11:40:54.983Z,62.00
2019-03-23T11:43:21.733Z,61.90
2019-03-23T11:45:52.065Z,62.10
2019-03-23T11:48:22.897Z,62.70
2019-03-23T11:50:52.841Z,62.50
2019-03-23T11:53:23.088Z,63.00
2019-03-23T11:55:53.680Z,61.90
2019-03-23T11:58:23.594Z,61.60
2019-03-23T12:00:53.801Z,61.60
2019-03-23T12:03:24.140Z,61.60
2019-03-23T12:05:55.417Z,61.50
2019-03-23T12:08:26.734Z,61.10
2019-03-23T12:11:02.945Z,62.10
2019-03-23T12:13:29.918Z,62.10
2019-03-23T12:16:00.258Z,62.20
2019-03-23T12:18:30.948Z,62.20
2019-03-23T12:21:01.973Z,62.20
2019-03-23T12:23:32.781Z,62.20
2019-03-23T12:26:03.150Z,62.10
2019-03-23T12:28:34.008Z,62.40
2019-03-23T12:31:04.673Z,62.10
2019-03-23T12:33:35.205Z,62.80
2019-03-23T12:36:05.146Z,61.70
2019-03-23T12:38:35.619Z,61.00
2019-03-23T12:41:14.229Z,60.80
2019-03-23T12:43:38.305Z,59.30
2019-03-23T12:46:08.685Z,59.60
2019-03-23T12:48:38.629Z,59.50
2019-03-23T12:51:09.122Z,59.20
2019-03-23T12:53:39.407Z,59.90
2019-03-23T12:56:10.009Z,59.60
2019-03-23T12:58:40.511Z,60.00
2019-03-23T13:01:11.553Z,59.30
2019-03-23T13:03:41.757Z,59.80
2019-03-23T13:06:12.627Z,58.70
2019-03-23T13:08:43.981Z,57.90
2019-03-23T13:11:23.051Z,57.80
2019-03-23T13:13:46.613Z,58.60
2019-03-23T13:16:16.877Z,58.70
2019-03-23T13:18:47.585Z,59.00
2019-03-23T13:21:17.842Z,59.80
2019-03-23T13:23:48.529Z,59.30
2019-03-23T13:26:18.417Z,58.80
2019-03-23T13:28:48.958Z,59.30
2019-03-23T13:31:19.697Z,59.40
2019-03-23T13:33:50.157Z,59.80
2019-03-23T13:36:20.364Z,59.90
2019-03-23T13:38:50.913Z,59.60
2019-03-23T13:41:21.224Z,59.10
2019-03-23T13:43:51.493Z,59.00
2019-03-23T13:46:21.693Z,59.40
2019-03-23T13:48:52.309Z,59.10
2019-03-23T13:51:22.640Z,59.40
2019-03-23T13:53:53.333Z,59.20
2019-03-23T13:56:23.709Z,59.60
2019-03-23T13:58:54.208Z,59.80
2019-03-23T14:01:24.625Z,59.60
2019-03-23T14:03:54.481Z,60.00
2019-03-23T14:06:25.033Z,59.80
2019-03-23T14:08:55.631Z,59.70
2019-03-23T14:11:25.883Z,60.20
2019-03-23T14:13:56.517Z,60.60
2019-03-23T14:16:27.565Z,60.60
2019-03-23T14:18:58.157Z,60.80
2019-03-23T14:21:29.408Z,60.40
2019-03-23T14:23:59.749Z,60.60
2019-03-23T14:26:30.313Z,61.10
2019-03-23T14:29:00.944Z,60.80
2019-03-23T14:31:31.478Z,61.60
2019-03-23T14:34:02.110Z,61.60
2019-03-23T14:36:32.468Z,61.30
2019-03-23T14:39:04.995Z,61.50
2019-03-23T14:41:35.662Z,61.50
2019-03-23T14:44:06.292Z,61.80
2019-03-23T14:46:36.577Z,61.40
2019-03-23T14:49:06.867Z,61.90
2019-03-23T14:51:37.532Z,61.50
2019-03-23T14:54:07.775Z,61.60
2019-03-23T14:56:38.162Z,61.40
2019-03-23T14:59:08.731Z,61.40
2019-03-23T15:01:39.267Z,61.70
2019-03-23T15:04:09.848Z,61.70
2019-03-23T15:06:40.418Z,62.00
2019-03-23T15:09:11.367Z,62.10
2019-03-23T15:11:41.585Z,62.30
2019-03-23T15:14:12.131Z,62.40
2019-03-23T15:16:42.045Z,62.40
2019-03-23T15:19:11.943Z,63.00
2019-03-23T15:21:42.596Z,62.50
2019-03-23T15:24:12.972Z,63.00
2019-03-23T15:26:43.859Z,62.90
2019-03-23T15:29:13.774Z,62.90
2019-03-23T15:31:44.439Z,63.00
2019-03-23T15:34:15.432Z,62.80
2019-03-23T15:36:45.654Z,62.30
2019-03-23T15:39:15.844Z,62.90
2019-03-23T15:41:46.783Z,62.90
2019-03-23T15:44:16.689Z,62.60
2019-03-23T15:46:47.685Z,63.00
2019-03-23T15:49:19.065Z,63.00
2019-03-23T15:51:49.448Z,63.20
2019-03-23T15:54:20.210Z,63.10
2019-03-23T15:56:50.821Z,63.30
2019-03-23T15:59:21.540Z,63.70
2019-03-23T16:01:52.069Z,63.50
2019-03-23T16:04:22.634Z,63.40
2019-03-23T16:06:53.385Z,63.90
2019-03-23T16:09:24.002Z,63.90
2019-03-23T16:11:53.981Z,64.30
2019-03-23T16:14:23.928Z,64.20
2019-03-23T16:16:54.876Z,65.10
2019-03-23T16:19:25.588Z,66.10
2019-03-23T16:21:55.878Z,66.00
2019-03-23T16:24:26.218Z,64.80
2019-03-23T16:26:57.233Z,63.00
2019-03-23T16:29:27.794Z,62.60
2019-03-23T16:31:58.221Z,64.40
2019-03-23T16:34:28.554Z,65.40
2019-03-23T16:36:58.506Z,65.80
2019-03-23T16:39:29.530Z,67.20
2019-03-23T16:42:00.534Z,68.30
2019-03-23T16:44:31.241Z,69.70
2019-03-23T16:47:01.132Z,70.10
2019-03-23T16:49:31.794Z,71.00
2019-03-23T16:52:02.370Z,71.30
2019-03-23T16:54:32.911Z,71.80
2019-03-23T16:57:03.927Z,72.20
2019-03-23T16:59:34.387Z,72.90
2019-03-23T17:02:04.627Z,73.40
2019-03-23T17:04:34.947Z,74.20
2019-03-23T17:07:05.658Z,75.10
2019-03-23T17:09:35.797Z,75.10
2019-03-23T17:12:06.804Z,74.70
2019-03-23T17:14:37.111Z,75.20
2019-03-23T17:17:07.058Z,74.80
2019-03-23T17:19:37.474Z,75.00
2019-03-23T17:22:08.133Z,75.00
2019-03-23T17:24:38.061Z,75.70
2019-03-23T17:27:08.534Z,76.10
2019-03-23T17:29:39.253Z,75.80
2019-03-23T17:32:09.786Z,76.40
2019-03-23T17:34:40.089Z,75.90
2019-03-23T17:37:11.013Z,76.40
2019-03-23T17:39:41.996Z,76.50
2019-03-23T17:42:12.291Z,76.70
2019-03-23T17:44:42.922Z,77.20
2019-03-23T17:47:12.882Z,77.30
2019-03-23T17:49:43.069Z,77.50
2019-03-23T17:52:13.500Z,78.10
2019-03-23T17:54:44.113Z,78.20
2019-03-23T17:57:14.650Z,78.20
2019-03-23T17:59:44.932Z,78.20
2019-03-23T18:02:15.260Z,78.90
2019-03-23T18:04:45.108Z,79.00
2019-03-23T18:07:15.333Z,78.90
2019-03-23T18:09:45.533Z,80.10
2019-03-23T18:12:15.673Z,79.60
2019-03-23T18:14:46.718Z,80.20
2019-03-23T18:17:16.883Z,80.80
2019-03-23T18:19:47.567Z,81.80
2019-03-23T18:22:18.569Z,81.30
2019-03-23T18:24:49.575Z,82.20
2019-03-23T18:27:19.966Z,82.10
2019-03-23T18:29:50.241Z,81.50
2019-03-23T18:32:21.575Z,81.70
2019-03-23T18:34:51.816Z,82.00
2019-03-23T18:37:22.097Z,82.30
2019-03-23T18:39:52.753Z,82.60
2019-03-23T18:42:22.689Z,82.90
2019-03-23T18:44:53.762Z,83.40
2019-03-23T18:47:23.680Z,83.60
2019-03-23T18:49:53.558Z,83.60
2019-03-23T18:52:23.747Z,83.60
2019-03-23T18:54:53.982Z,84.30
2019-03-23T18:57:23.876Z,84.70
2019-03-23T18:59:53.733Z,84.30
2019-03-23T19:02:23.935Z,85.00
2019-03-23T19:04:54.429Z,84.80
2019-03-23T19:07:24.733Z,85.60
2019-03-23T19:09:54.614Z,86.10
2019-03-23T19:12:24.730Z,86.00
2019-03-23T19:14:54.576Z,86.20
2019-03-23T19:17:25.465Z,86.50
2019-03-23T19:19:56.097Z,86.50
2019-03-23T19:22:27.126Z,86.50
2019-03-23T19:24:57.653Z,86.90
2019-03-23T19:27:28.193Z,87.10
2019-03-23T19:29:58.119Z,87.80
2019-03-23T19:32:29.101Z,88.40
2019-03-23T19:35:00.290Z,88.80
2019-03-23T19:37:30.693Z,89.30
2019-03-23T19:40:01.001Z,89.90
2019-03-23T19:42:30.863Z,90.20
2019-03-23T19:45:01.211Z,90.50
2019-03-23T19:47:31.593Z,90.60
2019-03-23T19:50:02.114Z,90.70
2019-03-23T19:52:33.635Z,91.00
2019-03-23T19:55:04.362Z,91.20
2019-03-23T19:57:34.743Z,91.50
2019-03-23T20:00:05.177Z,91.70
2019-03-23T20:02:35.542Z,92.10
2019-03-23T20:05:05.719Z,92.00
2019-03-23T20:07:35.882Z,92.20
2019-03-23T20:10:07.398Z,92.30
2019-03-23T20:12:37.351Z,92.70
2019-03-23T20:15:07.933Z,93.10
2019-03-23T20:17:38.613Z,93.20
2019-03-23T20:20:10.203Z,93.40
2019-03-23T20:22:40.453Z,93.60
2019-03-23T20:25:11.502Z,93.70
2019-03-23T20:27:41.439Z,94.40
2019-03-23T20:30:12.429Z,94.00
2019-03-23T20:32:42.921Z,94.20
2019-03-23T20:35:13.241Z,94.20
2019-03-23T20:37:44.389Z,94.40
2019-03-23T20:40:14.628Z,94.60
2019-03-23T20:42:44.892Z,94.70
2019-03-23T20:45:20.485Z,94.90
2019-03-23T20:47:51.419Z,95.30
2019-03-23T20:50:22.138Z,95.30
2019-03-23T20:52:52.335Z,95.70
2019-03-23T20:55:30.346Z,95.80
2019-03-23T20:58:00.981Z,95.80
2019-03-23T21:00:31.623Z,96.00
2019-03-23T21:03:02.558Z,96.00
2019-03-23T21:05:34.205Z,96.20
2019-03-23T21:08:04.940Z,96.30
2019-03-23T21:10:35.193Z,96.30
2019-03-23T21:13:06.285Z,96.50
2019-03-23T21:15:36.867Z,96.40
2019-03-23T21:18:06.782Z,96.60
2019-03-23T21:20:37.361Z,96.80
2019-03-23T21:23:08.205Z,97.00
2019-03-23T21:25:38.548Z,96.40
2019-03-23T21:28:08.433Z,96.70
2019-03-23T21:30:39.103Z,96.00
2019-03-23T21:33:09.582Z,96.20
2019-03-23T21:35:40.299Z,96.50
2019-03-23T21:38:10.999Z,96.60
2019-03-23T21:40:41.327Z,96.60
2019-03-23T21:43:11.984Z,96.90
2019-03-23T21:45:42.400Z,97.00
2019-03-23T21:48:13.587Z,97.40
2019-03-23T21:50:47.791Z,97.40
2019-03-23T21:53:16.663Z,97.60
2019-03-23T21:55:47.079Z,98.20
2019-03-23T21:58:17.931Z,98.30
2019-03-23T22:00:48.478Z,98.90
2019-03-23T22:03:19.501Z,99.20
2019-03-23T22:05:49.946Z,99.50
2019-03-23T22:08:20.961Z,99.80
2019-03-23T22:10:51.171Z,99.90
2019-03-23T22:13:22.484Z,99.90
2019-03-23T22:15:53.708Z,99.90
2019-03-23T22:18:24.029Z,99.90
2019-03-23T22:20:54.330Z,99.90
2019-03-23T22:23:25.217Z,99.90
2019-03-23T22:25:55.923Z,99.90
2019-03-23T22:28:25.845Z,99.90
2019-03-23T22:30:56.642Z,99.90
2019-03-23T22:33:27.892Z,99.90
2019-03-23T22:35:58.779Z,99.90
2019-03-23T22:38:29.317Z,99.90
2019-03-23T22:41:00.098Z,99.90
2019-03-23T22:43:30.353Z,99.90
2019-03-23T22:46:00.549Z,99.90
2019-03-23T22:48:31.445Z,99.90
2019-03-23T22:51:01.834Z,99.90
2019-03-23T22:53:32.952Z,99.90
2019-03-23T22:56:03.714Z,99.90
2019-03-23T22:58:34.082Z,99.90
2019-03-23T23:01:04.112Z,99.90
2019-03-23T23:03:34.810Z,99.90
2019-03-23T23:06:05.449Z,99.90
2019-03-23T23:08:36.081Z,99.90
2019-03-23T23:11:06.451Z,99.90
2019-03-23T23:13:37.017Z,99.90
2019-03-23T23:16:07.736Z,99.90
2019-03-23T23:18:38.369Z,99.90
2019-03-23T23:21:09.004Z,99.90
2019-03-23T23:23:39.333Z,99.90
2019-03-23T23:26:09.725Z,99.90
2019-03-23T23:28:40.214Z,99.90
2019-03-23T23:31:10.573Z,99.90
2019-03-23T23:33:40.933Z,99.90
2019-03-23T23:36:11.180Z,99.90
2019-03-23T23:38:41.724Z,99.90
2019-03-23T23:41:11.932Z,99.90
2019-03-23T23:43:42.774Z,99.90
2019-03-23T23:46:13.842Z,99.90
2019-03-23T23:48:51.296Z,99.90
2019-03-23T23:51:16.626Z,99.90
2019-03-23T23:53:46.850Z,99.90
2019-03-23T23:56:17.092Z,99.90
2019-03-23T23:58:47.008Z,99.90
